< < Back
Terminal Aerodrome Forecast


Current Version              Previous Versions:   1  2  3  4  5  6  7  8  9  

Terminal Aerodrome Forecast

310
FTUS44 KBMX 232300
TAFMGM
TAF
KMGM 232324Z 2400/2424 19005KT P6SM SCT040 BKN250
     FM241000 VRB02KT 4SM BR FEW001 SCT035
     FM241400 26004KT P6SM SCT025 SCT040
     FM242000 26007KT P6SM VCTS BKN050CB=

Latest METAR

567
SAUS80 KWBC 242300 RRC
MTRMGM
METAR KMGM 242253Z 32005KT 10SM CLR 31/23 A2992 RMK AO2 SLP129
T03060228


USA.gov is the U.S. government's official web portal to all federal, state and local government web resources and services.